Time;durP1;ratioP1;P1;durP2;ratioP2;P2;SDS_P1;SDS_P2;PMS_P1;PMS_P2;Temp;Humidity;BMP_temperature;BMP_pressure;BME280_temperature;BME280_humidity;BME280_pressure;Samples;Min_cycle;Max_cycle;Signal;HPM_P1;HPM_P2
2022/02/02 00:02:29;;;;;;;16.73;3.40;;;6.70;1.00;;;;;;5130262;27;20611;-74
2022/02/02 00:05:05;;;;;;;19.67;4.27;;;6.70;1.00;;;;;;5130859;27;20603;-74
2022/02/02 00:07:44;;;;;;;24.00;3.57;;;6.70;1.00;;;;;;5130699;27;20223;-74
2022/02/02 00:10:33;;;;;;;20.93;3.43;;;6.70;99.90;;;;;;5130422;27;20246;-74
2022/02/02 00:13:02;;;;;;;22.10;3.80;;;6.70;1.00;;;;;;5129611;27;20196;-74
2022/02/02 00:15:41;;;;;;;17.00;3.03;;;6.70;99.90;;;;;;5131196;27;20299;-74
2022/02/02 00:18:26;;;;;;;18.93;3.47;;;6.60;1.00;;;;;;5129708;27;20211;-74
2022/02/02 00:20:57;;;;;;;15.23;3.53;;;6.60;99.90;;;;;;5131304;27;20277;-74
2022/02/02 00:23:30;;;;;;;22.20;4.07;;;6.50;1.00;;;;;;5129270;27;20192;-74
2022/02/02 00:26:02;;;;;;;21.27;4.10;;;6.50;99.90;;;;;;5130256;27;20299;-74
2022/02/02 00:28:34;;;;;;;19.27;3.77;;;6.50;99.90;;;;;;5130851;28;20307;-74
2022/02/02 00:31:05;;;;;;;20.40;4.13;;;6.50;99.90;;;;;;5130178;28;20200;-74
2022/02/02 00:33:37;;;;;;;20.90;3.93;;;6.60;1.00;;;;;;5130876;28;20200;-74
2022/02/02 00:36:08;;;;;;;21.47;3.47;;;6.50;1.00;;;;;;5130666;28;20255;-74
2022/02/02 00:38:37;;;;;;;17.63;3.17;;;6.40;99.90;;;;;;5131209;28;20193;-74
2022/02/02 00:41:04;;;;;;;21.03;3.90;;;6.40;99.90;;;;;;5130593;28;20245;-74
2022/02/02 00:43:31;;;;;;;18.13;4.20;;;6.50;1.00;;;;;;5131404;28;20464;-74
2022/02/02 00:45:58;;;;;;;22.27;3.63;;;6.50;1.00;;;;;;5129052;28;20253;-74
2022/02/02 00:48:27;;;;;;;22.63;3.63;;;6.50;1.00;;;;;;5129064;28;20310;-74
2022/02/02 00:50:54;;;;;;;19.63;3.50;;;6.50;1.00;;;;;;5130482;28;20562;-74
2022/02/02 00:53:22;;;;;;;19.33;3.90;;;6.50;46.90;;;;;;5130817;28;20200;-74
2022/02/02 00:55:53;;;;;;;23.73;3.93;;;6.50;1.00;;;;;;5129321;28;20249;-74
2022/02/02 00:58:21;;;;;;;20.33;4.23;;;6.50;1.00;;;;;;5129732;28;20208;-74
2022/02/02 01:00:48;;;;;;;21.43;3.27;;;6.50;78.00;;;;;;5130462;28;20423;-74
2022/02/02 01:03:16;;;;;;;17.37;3.73;;;6.50;99.90;;;;;;5130702;28;20258;-75
2022/02/02 01:05:43;;;;;;;17.27;3.20;;;6.50;99.90;;;;;;5130780;28;20249;-74
2022/02/02 01:08:41;;;;;;;20.43;3.80;;;6.60;99.90;;;;;;5129263;28;20273;-74
2022/02/02 01:11:31;;;;;;;13.80;3.37;;;6.60;1.00;;;;;;5130558;28;20208;-74
2022/02/02 01:19:37;;;;;;;21.40;4.27;;;6.70;99.90;;;;;;5132602;27;20216;-74
2022/02/02 01:22:16;;;;;;;19.53;4.23;;;6.70;1.00;;;;;;5134068;27;20206;-74
2022/02/02 01:27:50;;;;;;;20.20;3.93;;;6.80;99.90;;;;;;5134250;27;20267;-75
2022/02/02 01:30:17;;;;;;;21.67;4.33;;;6.80;82.40;;;;;;5133708;27;20292;-74
2022/02/02 01:32:45;;;;;;;22.30;4.77;;;6.80;78.10;;;;;;5134257;27;20200;-69
2022/02/02 01:35:15;;;;;;;23.80;4.33;;;6.70;99.90;;;;;;5132997;27;20200;-69
2022/02/02 01:37:42;;;;;;;23.20;4.67;;;6.70;99.90;;;;;;5134155;27;20200;-70
2022/02/02 01:40:18;;;;;;;19.10;3.70;;;6.70;99.90;;;;;;5132804;27;20244;-69
2022/02/02 01:42:52;;;;;;;18.03;3.10;;;6.70;1.00;;;;;;5133939;27;20668;-69
2022/02/02 01:45:20;;;;;;;24.37;4.50;;;6.70;99.90;;;;;;5132283;27;20290;-69
2022/02/02 01:47:57;;;;;;;24.60;3.37;;;6.70;99.90;;;;;;5132847;27;20307;-69
2022/02/02 01:50:34;;;;;;;19.37;3.23;;;6.70;99.90;;;;;;5134015;27;20660;-69
2022/02/02 01:53:10;;;;;;;17.27;3.80;;;6.70;99.90;;;;;;5134417;27;20270;-69
2022/02/02 01:55:39;;;;;;;25.77;4.87;;;6.70;1.00;;;;;;5132340;27;20203;-69
2022/02/02 01:58:24;;;;;;;14.83;2.63;;;6.50;99.90;;;;;;5133084;27;20200;-69
2022/02/02 02:00:51;;;;;;;21.93;4.20;;;6.40;1.00;;;;;;5132322;27;20654;-69
2022/02/02 02:03:18;;;;;;;14.83;4.17;;;6.40;1.00;;;;;;5131456;27;20245;-70
2022/02/02 02:05:45;;;;;;;14.97;2.50;;;6.40;1.00;;;;;;5124792;27;20717;-70
2022/02/02 02:08:12;;;;;;;15.80;3.90;;;6.30;1.00;;;;;;5131955;27;20739;-69
2022/02/02 02:10:39;;;;;;;18.90;2.50;;;6.20;99.90;;;;;;5133702;27;20259;-69
2022/02/02 02:13:12;;;;;;;13.50;2.93;;;6.20;1.00;;;;;;5133792;27;20257;-69
2022/02/02 02:15:41;;;;;;;8.33;1.50;;;6.10;99.90;;;;;;5133907;27;20204;-69
2022/02/02 02:18:08;;;;;;;8.33;1.40;;;5.00;1.00;;;;;;5132290;27;20662;-69
2022/02/02 02:20:36;;;;;;;9.73;1.47;;;4.80;1.00;;;;;;5127579;27;20193;-69
2022/02/02 02:23:04;;;;;;;5.27;1.53;;;4.90;1.00;;;;;;5131703;27;20196;-69
2022/02/02 02:25:33;;;;;;;11.33;2.27;;;4.90;1.00;;;;;;5132307;27;20249;-69
2022/02/02 02:28:09;;;;;;;8.90;1.70;;;5.00;1.00;;;;;;5133487;27;20216;-69
2022/02/02 02:30:46;;;;;;;14.67;1.80;;;5.20;12.10;;;;;;5132510;27;20325;-69
2022/02/02 02:33:36;;;;;;;11.10;2.03;;;5.30;1.00;;;;;;5133390;27;20204;-69
2022/02/02 02:57:51;;;;;;;13.90;2.77;;;5.60;1.00;;;;;;5131498;27;20199;-69
2022/02/02 03:00:29;;;;;;;15.83;2.50;;;5.60;1.00;;;;;;5131320;27;20655;-69
2022/02/02 03:30:48;;;;;;;16.77;3.07;;;6.00;1.00;;;;;;5131413;27;20211;-69
2022/02/02 03:55:26;;;;;;;17.00;3.23;;;6.20;1.00;;;;;;5126518;27;20297;-69
2022/02/02 03:58:09;;;;;;;17.20;3.17;;;6.10;99.90;;;;;;5130717;27;20294;-69
2022/02/02 04:00:44;;;;;;;17.60;4.07;;;5.90;1.00;;;;;;5132632;27;20252;-69
2022/02/02 04:03:43;;;;;;;17.80;3.47;;;5.80;1.00;;;;;;5132200;27;20276;-69
2022/02/02 04:06:17;;;;;;;15.70;2.90;;;5.80;1.00;;;;;;5131776;27;20211;-70
2022/02/02 04:08:44;;;;;;;14.67;3.30;;;5.80;1.00;;;;;;5131249;27;20259;-69
2022/02/02 04:11:16;;;;;;;14.43;2.63;;;5.70;1.00;;;;;;5131895;27;20192;-69
2022/02/02 04:39:04;;;;;;;8.67;1.90;;;5.60;1.00;;;;;;5068571;28;20190;-69
2022/02/02 04:55:23;;;;;;;16.77;2.40;;;5.60;1.00;;;;;;5132638;27;20204;-70
2022/02/02 04:58:13;;;;;;;10.83;3.17;;;5.50;1.00;;;;;;5136104;27;20642;-69
2022/02/02 05:06:25;;;;;;;13.00;3.40;;;5.70;1.00;;;;;;5108586;27;1758503;-73
2022/02/02 05:09:00;;;;;;;17.87;3.30;;;5.70;1.00;;;;;;5170211;27;20203;-73
2022/02/02 05:11:53;;;;;;;16.40;2.90;;;5.70;1.00;;;;;;5170603;27;20202;-74
2022/02/02 05:45:29;;;;;;;19.70;3.43;;;5.50;1.00;;;;;;5070379;27;20332;-73
2022/02/02 05:53:33;;;;;;;19.93;3.77;;;5.60;1.00;;;;;;5111263;28;20192;-73
2022/02/02 05:56:03;;;;;;;17.43;3.70;;;5.60;1.00;;;;;;5127220;27;20648;-73
2022/02/02 05:58:33;;;;;;;20.03;4.10;;;5.60;1.00;;;;;;5127156;28;20204;-73
2022/02/02 06:01:01;;;;;;;19.47;3.30;;;5.60;1.00;;;;;;5127140;27;20220;-73
2022/02/02 06:03:52;;;;;;;20.77;3.27;;;5.70;1.00;;;;;;5126122;28;20196;-73
2022/02/02 06:06:22;;;;;;;23.33;3.67;;;5.70;1.00;;;;;;5126522;27;20274;-73
2022/02/02 06:08:50;;;;;;;16.17;3.23;;;5.70;1.00;;;;;;5128025;28;20245;-73
2022/02/02 06:11:20;;;;;;;24.53;4.27;;;5.70;1.00;;;;;;5136206;27;20205;-73
2022/02/02 06:13:50;;;;;;;17.27;3.43;;;5.80;1.00;;;;;;5130746;27;20204;-74
2022/02/02 06:16:17;;;;;;;21.03;3.27;;;5.80;1.00;;;;;;5122157;27;20216;-74
2022/02/02 06:18:45;;;;;;;20.00;4.43;;;5.80;1.00;;;;;;5114481;27;20659;-73
2022/02/02 06:21:14;;;;;;;19.10;3.20;;;5.80;99.90;;;;;;5118709;27;20226;-74
2022/02/02 06:23:45;;;;;;;21.47;3.33;;;5.90;1.00;;;;;;5131406;27;20203;-73
2022/02/02 06:26:15;;;;;;;14.80;3.97;;;5.90;1.00;;;;;;5128871;27;20209;-74
2022/02/02 06:28:45;;;;;;;16.53;3.70;;;5.80;1.00;;;;;;5149394;27;20249;-73
2022/02/02 06:31:13;;;;;;;18.80;3.30;;;5.80;1.00;;;;;;5148082;27;20234;-73
2022/02/02 06:33:42;;;;;;;23.37;3.77;;;5.80;1.00;;;;;;5111391;28;20197;-74
2022/02/02 06:36:11;;;;;;;17.50;2.90;;;5.80;1.00;;;;;;5113483;27;20209;-74
2022/02/02 06:38:39;;;;;;;19.37;4.83;;;5.80;1.00;;;;;;5113091;28;20200;-74
2022/02/02 06:41:07;;;;;;;16.07;2.90;;;5.80;1.00;;;;;;5112217;27;20241;-74
2022/02/02 06:43:35;;;;;;;17.63;3.23;;;5.70;1.00;;;;;;5112495;28;20244;-73
2022/02/02 06:46:03;;;;;;;16.90;3.27;;;5.80;1.00;;;;;;5128581;27;20541;-73
2022/02/02 06:48:32;;;;;;;18.37;3.57;;;5.80;1.00;;;;;;5133848;27;20204;-73
2022/02/02 06:51:09;;;;;;;16.27;3.60;;;5.80;1.00;;;;;;5132869;27;20582;-74
2022/02/02 06:53:48;;;;;;;15.73;3.17;;;5.80;1.00;;;;;;5133665;27;20215;-74
2022/02/02 06:56:35;;;;;;;23.70;4.23;;;5.80;1.00;;;;;;5132441;27;20300;-73
2022/02/02 06:59:16;;;;;;;19.87;3.50;;;5.80;1.00;;;;;;5131986;27;20865;-73
2022/02/02 07:01:58;;;;;;;17.27;3.10;;;5.90;1.00;;;;;;5131407;27;20390;-73
2022/02/02 07:05:09;;;;;;;19.17;4.77;;;5.90;1.00;;;;;;5131944;27;20200;-73
2022/02/02 07:07:52;;;;;;;20.37;3.33;;;5.90;1.00;;;;;;5095374;27;20204;-74
2022/02/02 07:10:27;;;;;;;23.67;4.90;;;5.90;1.00;;;;;;5133572;27;20204;-74
2022/02/02 07:13:09;;;;;;;14.37;3.20;;;5.90;1.00;;;;;;5131885;27;20556;-74
2022/02/02 07:15:52;;;;;;;30.43;4.23;;;5.90;1.00;;;;;;5132345;27;20206;-74
2022/02/02 07:18:30;;;;;;;15.73;3.63;;;5.90;1.00;;;;;;5133621;27;20219;-73
2022/02/02 07:21:05;;;;;;;18.47;3.20;;;5.90;1.00;;;;;;5131973;27;20204;-73
2022/02/02 07:26:47;;;;;;;24.17;4.13;;;6.00;1.00;;;;;;5094482;27;20239;-73
2022/02/02 07:29:21;;;;;;;16.60;3.47;;;5.90;1.00;;;;;;5129550;27;20254;-73
2022/02/02 07:32:04;;;;;;;23.03;4.17;;;6.00;99.90;;;;;;5132020;27;20295;-73
2022/02/02 07:34:45;;;;;;;13.17;2.90;;;5.90;99.90;;;;;;5131890;27;20200;-73
2022/02/02 07:37:22;;;;;;;18.23;3.23;;;5.90;99.90;;;;;;5132233;27;20201;-73
2022/02/02 07:39:49;;;;;;;16.47;3.70;;;6.00;1.00;;;;;;5131497;27;20216;-73
2022/02/02 07:42:20;;;;;;;19.53;3.10;;;6.00;99.90;;;;;;5132612;27;20204;-73
2022/02/02 07:44:51;;;;;;;20.33;3.30;;;6.00;99.90;;;;;;5132570;27;20570;-74
2022/02/02 07:47:20;;;;;;;31.57;3.13;;;6.00;99.90;;;;;;5131828;27;20212;-74
2022/02/02 07:49:54;;;;;;;19.60;3.00;;;6.00;99.90;;;;;;5132703;27;20208;-73
2022/02/02 07:52:22;;;;;;;16.80;3.63;;;6.00;1.00;;;;;;5131555;27;20202;-73
2022/02/02 07:54:51;;;;;;;14.20;3.53;;;6.00;1.00;;;;;;5131411;27;20686;-74
2022/02/02 07:57:25;;;;;;;15.00;3.90;;;5.90;99.90;;;;;;5131437;27;20196;-73
2022/02/02 07:59:55;;;;;;;17.13;3.07;;;5.90;99.90;;;;;;5131170;27;20211;-74
2022/02/02 08:02:28;;;;;;;19.03;3.07;;;5.90;99.90;;;;;;5132375;27;20265;-73
2022/02/02 08:04:56;;;;;;;14.60;3.33;;;5.90;99.90;;;;;;5132456;27;20223;-73
2022/02/02 08:07:28;;;;;;;23.37;3.53;;;5.80;1.00;;;;;;5132135;27;20249;-73
2022/02/02 08:10:07;;;;;;;17.10;3.70;;;5.80;1.00;;;;;;5131865;27;20200;-73
2022/02/02 08:12:43;;;;;;;25.40;3.93;;;5.80;1.00;;;;;;5132984;27;20204;-74
2022/02/02 08:15:11;;;;;;;20.40;4.17;;;5.90;1.00;;;;;;5129999;27;20362;-73
2022/02/02 08:17:39;;;;;;;20.27;2.50;;;6.00;99.90;;;;;;5114827;27;20258;-74
2022/02/02 08:20:08;;;;;;;26.13;4.70;;;6.00;99.90;;;;;;5112136;28;20208;-74
2022/02/02 08:22:38;;;;;;;18.13;3.10;;;6.00;99.90;;;;;;5111469;28;20197;-74
2022/02/02 08:25:06;;;;;;;20.70;3.60;;;6.10;99.90;;;;;;5110033;27;20229;-73
2022/02/02 08:27:39;;;;;;;16.43;3.07;;;6.10;99.90;;;;;;5111530;28;20203;-74
2022/02/02 08:30:09;;;;;;;19.80;4.00;;;6.10;99.90;;;;;;5109988;28;20201;-74
2022/02/02 08:32:42;;;;;;;20.13;3.40;;;6.10;99.90;;;;;;5110707;28;20205;-74
2022/02/02 08:35:11;;;;;;;25.77;4.33;;;6.00;99.90;;;;;;5110193;28;20223;-73
2022/02/02 08:37:42;;;;;;;17.57;3.80;;;6.00;1.00;;;;;;5111423;28;20258;-74
2022/02/02 08:40:27;;;;;;;16.83;3.73;;;6.00;99.90;;;;;;5110545;28;20204;-74
2022/02/02 08:42:56;;;;;;;22.50;4.07;;;6.10;50.70;;;;;;5111256;28;20214;-74
2022/02/02 08:45:26;;;;;;;21.87;3.33;;;6.20;1.00;;;;;;5109850;28;20219;-74
2022/02/02 08:47:58;;;;;;;15.13;2.63;;;6.20;1.00;;;;;;5111455;28;20312;-74
2022/02/02 08:50:31;;;;;;;23.73;3.93;;;6.20;1.00;;;;;;5110160;28;20209;-74
2022/02/02 08:53:08;;;;;;;22.37;3.90;;;6.20;1.00;;;;;;5109982;28;20212;-74
2022/02/02 08:58:28;;;;;;;15.10;3.13;;;6.20;99.90;;;;;;5109556;28;20291;-74
2022/02/02 09:00:55;;;;;;;18.03;3.70;;;6.20;1.00;;;;;;5110213;28;20250;-74
2022/02/02 09:06:10;;;;;;;19.60;3.57;;;6.30;1.00;;;;;;5110598;28;20321;-74
2022/02/02 09:08:37;;;;;;;14.57;2.70;;;6.30;1.80;;;;;;5111235;28;20628;-74
2022/02/02 09:25:04;;;;;;;20.00;3.53;;;6.30;99.90;;;;;;5109861;28;20197;-74
2022/02/02 09:35:46;;;;;;;19.97;5.10;;;6.50;1.00;;;;;;5102584;28;20193;-74
2022/02/02 09:38:15;;;;;;;16.43;3.53;;;6.50;99.90;;;;;;5110677;28;20197;-74
2022/02/02 09:41:18;;;;;;;17.77;2.87;;;6.50;99.90;;;;;;5109978;28;20201;-74
2022/02/02 09:43:48;;;;;;;14.50;3.00;;;6.50;99.90;;;;;;5111401;28;20212;-74
2022/02/02 09:46:20;;;;;;;13.47;2.57;;;6.60;99.90;;;;;;5110370;28;20413;-74
2022/02/02 09:48:50;;;;;;;14.30;2.80;;;6.60;1.00;;;;;;5109263;28;20294;-74
2022/02/02 09:51:24;;;;;;;17.10;3.33;;;6.70;96.90;;;;;;5111504;28;20216;-74
2022/02/02 09:53:59;;;;;;;20.17;3.57;;;6.70;1.00;;;;;;5114067;28;20208;-74
2022/02/02 09:56:46;;;;;;;12.90;2.97;;;6.70;1.00;;;;;;5114389;27;20292;-74
2022/02/02 09:59:35;;;;;;;13.17;2.73;;;6.80;1.00;;;;;;5113343;28;20200;-74
2022/02/02 10:05:09;;;;;;;13.43;2.87;;;6.90;1.00;;;;;;5134275;27;20195;-74
2022/02/02 10:08:07;;;;;;;11.80;2.63;;;6.90;1.00;;;;;;5134907;27;20200;-74
2022/02/02 10:10:56;;;;;;;17.67;2.90;;;7.00;99.90;;;;;;5135370;27;20226;-74
2022/02/02 10:13:35;;;;;;;9.97;2.37;;;7.00;1.00;;;;;;5135204;27;20204;-74
2022/02/02 10:16:02;;;;;;;15.50;2.77;;;7.00;1.00;;;;;;5134773;27;20626;-74
2022/02/02 10:18:32;;;;;;;18.03;3.80;;;7.10;99.90;;;;;;5134916;27;20253;-74
2022/02/02 10:20:59;;;;;;;18.87;2.87;;;7.20;1.00;;;;;;5135296;27;20730;-69
2022/02/02 10:23:28;;;;;;;17.30;3.23;;;7.20;1.00;;;;;;5135558;27;20291;-69
2022/02/02 10:26:12;;;;;;;15.63;2.80;;;7.10;99.90;;;;;;5135792;27;20230;-69
2022/02/02 10:28:39;;;;;;;23.57;3.53;;;7.10;1.00;;;;;;5135722;27;20207;-69
2022/02/02 10:31:08;;;;;;;13.63;3.70;;;7.10;1.00;;;;;;5135540;27;20214;-69
2022/02/02 10:33:36;;;;;;;17.23;3.87;;;7.10;1.00;;;;;;5135678;27;20200;-69
2022/02/02 10:36:12;;;;;;;16.13;3.23;;;7.30;1.00;;;;;;5135282;27;20570;-69
2022/02/02 10:38:47;;;;;;;15.07;3.17;;;7.30;1.00;;;;;;5135787;27;20718;-69
2022/02/02 10:41:26;;;;;;;17.17;3.10;;;7.30;99.90;;;;;;5135361;27;20195;-69
2022/02/02 10:43:56;;;;;;;18.17;2.90;;;7.30;99.90;;;;;;5135382;27;20574;-69
2022/02/02 10:46:30;;;;;;;13.37;2.73;;;7.30;99.90;;;;;;5135048;27;20220;-69
2022/02/02 10:49:10;;;;;;;12.53;2.77;;;7.20;99.90;;;;;;5135444;27;20200;-69
2022/02/02 10:51:41;;;;;;;12.47;2.43;;;7.20;99.90;;;;;;5135591;27;20235;-69
2022/02/02 10:54:18;;;;;;;15.47;2.73;;;7.40;1.00;;;;;;5135207;27;20200;-69
2022/02/02 10:56:52;;;;;;;17.83;3.10;;;7.30;99.90;;;;;;5135496;27;20553;-69
2022/02/02 10:59:42;;;;;;;13.63;2.63;;;7.30;1.00;;;;;;5135470;27;20666;-69
2022/02/02 11:07:39;;;;;;;13.10;2.20;;;7.20;1.00;;;;;;5134882;27;20725;-69
2022/02/02 11:10:07;;;;;;;14.13;2.30;;;7.10;1.00;;;;;;5135133;27;20208;-69
2022/02/02 11:12:38;;;;;;;14.27;3.07;;;7.10;1.00;;;;;;5134863;27;20571;-69
2022/02/02 11:15:16;;;;;;;14.10;2.33;;;7.10;1.00;;;;;;5134674;27;20207;-69
2022/02/02 11:17:52;;;;;;;10.87;1.93;;;7.00;1.00;;;;;;5134447;27;20196;-69
2022/02/02 11:20:21;;;;;;;13.03;2.33;;;7.00;99.90;;;;;;5134984;27;20536;-69
2022/02/02 11:22:50;;;;;;;18.10;2.63;;;7.00;1.00;;;;;;5134502;27;20196;-69
2022/02/02 11:25:50;;;;;;;12.47;2.47;;;6.90;1.00;;;;;;5134534;27;20665;-69
2022/02/02 11:28:40;;;;;;;13.03;2.87;;;7.00;1.00;;;;;;5134678;27;20191;-69
2022/02/02 11:31:09;;;;;;;14.80;2.57;;;7.00;1.00;;;;;;5128026;27;20552;-69
2022/02/02 11:33:56;;;;;;;14.70;3.63;;;7.20;1.00;;;;;;5134323;27;20215;-69
2022/02/02 11:36:30;;;;;;;12.63;2.83;;;7.80;99.90;;;;;;5134264;27;20197;-69
2022/02/02 11:38:59;;;;;;;9.67;2.43;;;8.10;1.00;;;;;;5134467;27;20208;-69
2022/02/02 11:41:55;;;;;;;13.43;2.47;;;8.20;1.00;;;;;;5134126;27;20611;-69
2022/02/02 11:44:49;;;;;;;15.70;3.27;;;7.90;99.90;;;;;;5128103;27;20207;-69
2022/02/02 11:47:23;;;;;;;9.33;2.43;;;7.80;99.90;;;;;;5127332;27;20694;-69
2022/02/02 11:49:56;;;;;;;8.20;2.10;;;8.10;99.90;;;;;;5104655;27;20203;-69
2022/02/02 11:52:39;;;;;;;14.90;2.07;;;8.00;1.00;;;;;;5132796;27;20220;-69
2022/02/02 11:55:08;;;;;;;8.43;2.23;;;8.30;99.90;;;;;;5132200;27;20200;-69
2022/02/02 11:57:53;;;;;;;13.60;2.60;;;8.30;1.00;;;;;;5133799;27;20287;-69
2022/02/02 12:00:31;;;;;;;12.33;2.03;;;8.00;1.00;;;;;;5132695;27;20295;-69
2022/02/02 12:03:14;;;;;;;8.50;2.40;;;7.80;1.00;;;;;;5117513;27;20249;-69
2022/02/02 12:05:58;;;;;;;13.33;2.33;;;7.80;99.90;;;;;;5093819;28;20812;-69
2022/02/02 12:08:40;;;;;;;13.90;2.53;;;7.70;99.90;;;;;;5112993;28;20208;-69
2022/02/02 12:11:43;;;;;;;10.97;2.10;;;7.60;1.00;;;;;;5130145;27;20232;-69
2022/02/02 12:20:37;;;;;;;8.43;2.17;;;7.90;1.00;;;;;;5133578;27;20298;-69
2022/02/02 12:54:03;;;;;;;10.53;2.43;;;8.90;1.00;;;;;;5128321;27;20189;-73
2022/02/02 12:56:38;;;;;;;12.97;2.30;;;9.20;99.90;;;;;;5128741;27;20206;-73
2022/02/02 13:02:07;;;;;;;8.67;1.73;;;10.40;1.00;;;;;;5126653;27;20689;-73
2022/02/02 13:04:34;;;;;;;6.10;1.67;;;10.40;1.00;;;;;;5126456;28;20486;-74
2022/02/02 13:07:14;;;;;;;7.33;1.90;;;9.90;1.00;;;;;;5131658;27;20220;-73
2022/02/02 13:09:43;;;;;;;10.60;1.53;;;9.60;1.00;;;;;;5151341;27;20226;-74
2022/02/02 13:12:25;;;;;;;3.20;1.30;;;9.40;1.00;;;;;;5133930;27;20200;-74
2022/02/02 13:17:59;;;;;;;10.27;1.80;;;8.50;1.00;;;;;;5109505;28;20204;-73
2022/02/02 13:20:34;;;;;;;6.47;1.90;;;8.90;1.00;;;;;;5111369;28;20579;-73
2022/02/02 13:23:12;;;;;;;9.57;2.00;;;9.00;1.00;;;;;;5112560;28;20696;-73
2022/02/02 13:25:42;;;;;;;8.43;1.77;;;8.50;56.10;;;;;;5097499;28;20212;-72
2022/02/02 13:28:10;;;;;;;8.50;2.60;;;7.90;1.00;;;;;;5120095;27;20220;-72
2022/02/02 13:30:43;;;;;;;9.33;2.00;;;7.80;1.00;;;;;;5126298;27;20208;-73
2022/02/02 13:33:19;;;;;;;11.00;1.80;;;7.30;1.00;;;;;;5118192;27;20205;-73
2022/02/02 13:36:11;;;;;;;8.00;1.83;;;7.20;1.00;;;;;;5096982;28;20296;-73
2022/02/02 13:39:19;;;;;;;9.30;1.90;;;7.00;1.00;;;;;;5116302;27;20219;-73
2022/02/02 13:44:48;;;;;;;12.00;2.07;;;7.90;99.90;;;;;;5117888;27;20208;-74
2022/02/02 13:47:42;;;;;;;5.40;1.40;;;7.30;1.00;;;;;;5121497;27;20303;-73
2022/02/02 13:50:40;;;;;;;9.83;1.80;;;7.10;1.00;;;;;;5125519;27;20566;-73
2022/02/02 13:53:56;;;;;;;6.13;1.83;;;7.20;99.90;;;;;;5113191;27;20209;-73
2022/02/02 14:02:13;;;;;;;5.33;1.50;;;7.10;99.90;;;;;;5093884;27;20257;-73
2022/02/02 14:05:00;;;;;;;7.97;1.67;;;7.20;99.90;;;;;;5121389;27;20208;-73
2022/02/02 14:07:43;;;;;;;7.40;1.37;;;7.30;1.00;;;;;;5120383;27;20224;-73
2022/02/02 14:10:26;;;;;;;8.00;1.70;;;7.30;31.20;;;;;;5126697;27;20260;-73
2022/02/02 14:32:07;;;;;;;6.93;0.90;;;7.00;99.90;;;;;;5120158;27;20274;-73
2022/02/02 14:34:34;;;;;;;5.23;1.10;;;7.20;99.90;;;;;;5125783;27;20209;-73
2022/02/02 14:37:02;;;;;;;8.30;1.33;;;7.30;13.50;;;;;;5117534;27;20643;-73
2022/02/02 14:39:44;;;;;;;4.80;1.20;;;7.20;34.20;;;;;;5123862;27;20262;-73
2022/02/02 14:42:15;;;;;;;9.67;1.67;;;7.10;1.00;;;;;;5126946;27;20434;-73
2022/02/02 14:44:45;;;;;;;9.70;1.20;;;7.00;1.00;;;;;;5128531;27;20204;-73
2022/02/02 14:47:16;;;;;;;8.73;1.17;;;6.90;1.00;;;;;;5119721;27;20223;-73
2022/02/02 14:49:44;;;;;;;6.43;1.80;;;6.90;1.00;;;;;;5128011;27;20635;-73
2022/02/02 14:52:21;;;;;;;6.87;1.47;;;7.00;1.00;;;;;;5124064;27;20340;-73
2022/02/02 14:55:13;;;;;;;9.70;2.00;;;6.90;1.00;;;;;;5123586;27;20723;-73
2022/02/02 15:25:45;;;;;;;7.30;1.80;;;6.70;99.90;;;;;;5130996;27;20211;-73
2022/02/02 15:28:13;;;;;;;8.83;1.97;;;6.70;99.90;;;;;;5117504;27;20228;-73
2022/02/02 15:30:51;;;;;;;8.57;1.50;;;6.60;99.90;;;;;;5125987;27;20265;-73
2022/02/02 15:33:23;;;;;;;8.20;1.83;;;6.60;99.90;;;;;;5120619;27;20200;-73
2022/02/02 15:36:01;;;;;;;7.63;1.83;;;6.60;99.90;;;;;;5124322;27;20670;-74
2022/02/02 15:38:28;;;;;;;7.07;2.27;;;6.60;99.90;;;;;;5124725;27;20231;-74
2022/02/02 15:41:01;;;;;;;14.50;3.07;;;6.50;1.00;;;;;;5118078;27;20251;-73
2022/02/02 15:43:36;;;;;;;9.43;2.23;;;6.50;1.00;;;;;;5125466;27;20209;-74
2022/02/02 16:05:43;;;;;;;10.13;2.10;;;6.00;1.00;;;;;;5134267;27;20204;-73
2022/02/02 16:08:12;;;;;;;8.63;1.77;;;5.90;1.00;;;;;;5141355;27;20215;-73
2022/02/02 16:11:03;;;;;;;14.47;2.83;;;5.90;1.00;;;;;;5146286;27;20212;-73
2022/02/02 16:13:32;;;;;;;13.43;4.27;;;5.80;1.00;;;;;;5132678;27;20663;-73
2022/02/02 16:16:03;;;;;;;8.27;2.90;;;5.70;1.00;;;;;;5141476;27;20224;-73
2022/02/02 16:18:40;;;;;;;11.93;2.53;;;5.70;1.00;;;;;;5146307;27;20199;-74
2022/02/02 16:32:28;;;;;;;7.07;2.90;;;5.40;1.00;;;;;;5147608;27;20657;-70
2022/02/02 16:35:13;;;;;;;7.63;2.40;;;5.40;1.00;;;;;;5139319;27;20199;-69
2022/02/02 16:37:42;;;;;;;12.77;2.40;;;5.40;1.00;;;;;;5149256;27;20667;-68
2022/02/02 16:40:14;;;;;;;10.50;2.47;;;5.30;25.80;;;;;;5143534;27;20201;-68
2022/02/02 16:43:08;;;;;;;11.77;2.70;;;5.30;99.90;;;;;;5138615;27;20223;-70
2022/02/02 16:45:36;;;;;;;13.00;2.53;;;5.20;99.90;;;;;;5138710;27;20277;-70
2022/02/02 16:48:03;;;;;;;9.03;2.70;;;5.10;1.00;;;;;;5143527;27;20531;-69
2022/02/02 16:50:35;;;;;;;9.80;3.43;;;5.10;1.00;;;;;;5148318;27;20192;-73
2022/02/02 16:53:07;;;;;;;13.90;3.73;;;5.00;1.00;;;;;;5134179;27;20252;-69
2022/02/02 16:55:40;;;;;;;7.43;2.53;;;4.90;1.00;;;;;;5134796;27;20223;-70
2022/02/02 16:58:31;;;;;;;12.43;2.53;;;4.90;99.90;;;;;;5142487;27;20242;-69
2022/02/02 17:31:11;;;;;;;14.13;3.97;;;4.20;99.90;;;;;;5107262;27;20244;-69
2022/02/02 17:33:43;;;;;;;12.83;4.43;;;4.20;99.90;;;;;;5121055;27;20205;-69
2022/02/02 17:36:20;;;;;;;11.50;3.70;;;4.20;99.90;;;;;;5132236;27;20200;-69
2022/02/02 17:38:54;;;;;;;9.67;3.90;;;4.10;99.90;;;;;;5124523;27;20208;-69
2022/02/02 17:41:38;;;;;;;12.30;3.37;;;4.10;99.90;;;;;;5126053;27;20716;-69
2022/02/02 18:01:26;;;;;;;9.93;2.30;;;3.90;1.00;;;;;;5128523;27;20200;-70
2022/02/02 18:20:10;;;;;;;21.03;7.47;;;3.60;1.00;;;;;;5124346;27;20254;-70
2022/02/02 18:22:43;;;;;;;18.30;5.77;;;3.50;1.00;;;;;;5126642;27;20218;-70
2022/02/02 18:25:16;;;;;;;12.67;4.00;;;3.60;1.00;;;;;;5122693;27;20604;-70
2022/02/02 18:27:50;;;;;;;16.00;4.53;;;3.60;1.00;;;;;;5115403;27;20197;-70
2022/02/02 18:30:29;;;;;;;18.87;5.93;;;3.60;1.00;;;;;;5123741;27;20201;-70
2022/02/02 18:35:52;;;;;;;17.73;5.57;;;3.60;99.90;;;;;;5101574;27;20558;-70
2022/02/02 18:49:35;;;;;;;14.90;4.40;;;3.40;99.90;;;;;;5107100;27;20232;-69
2022/02/02 18:54:59;;;;;;;15.10;3.10;;;3.40;99.90;;;;;;5113937;27;20720;-70
2022/02/02 18:57:39;;;;;;;17.73;4.13;;;3.40;99.90;;;;;;5125042;27;20685;-69
2022/02/02 19:00:29;;;;;;;18.97;4.40;;;3.40;1.00;;;;;;5122027;27;20196;-70
2022/02/02 19:31:26;;;;;;;15.07;3.87;;;3.40;1.00;;;;;;5143751;27;20211;-70
2022/02/02 19:56:28;;;;;;;11.80;3.60;;;3.20;99.90;;;;;;5141138;27;20287;-69
2022/02/02 20:01:52;;;;;;;10.07;4.17;;;3.00;99.90;;;;;;5142671;27;20249;-70
2022/02/02 20:07:09;;;;;;;16.13;3.97;;;3.00;1.00;;;;;;5126207;27;20210;-70
2022/02/02 20:12:25;;;;;;;9.97;4.13;;;2.90;1.00;;;;;;5142031;27;20200;-70
2022/02/02 20:14:52;;;;;;;12.87;3.70;;;2.90;1.00;;;;;;5140991;27;20705;-69
2022/02/02 20:17:22;;;;;;;12.87;4.20;;;2.90;1.00;;;;;;5129309;27;20253;-69
2022/02/02 20:19:53;;;;;;;17.23;3.90;;;2.90;1.00;;;;;;5127090;27;20213;-69
2022/02/02 20:22:23;;;;;;;11.30;3.33;;;2.90;1.00;;;;;;5123422;27;20293;-69
2022/02/02 20:24:57;;;;;;;11.30;3.43;;;2.90;1.00;;;;;;5128183;27;20224;-69
2022/02/02 20:27:26;;;;;;;11.53;3.13;;;3.00;99.90;;;;;;5130542;27;20205;-69
2022/02/02 20:29:54;;;;;;;9.93;3.03;;;3.00;99.90;;;;;;5124520;27;20216;-69
2022/02/02 20:32:21;;;;;;;16.47;3.20;;;3.00;99.90;;;;;;5128960;27;20196;-69
2022/02/02 20:34:48;;;;;;;13.17;4.27;;;2.90;99.90;;;;;;5127636;27;20216;-69
2022/02/02 20:37:18;;;;;;;15.37;3.53;;;2.80;99.90;;;;;;5123566;27;20246;-69
2022/02/02 20:39:52;;;;;;;12.07;3.10;;;2.80;99.90;;;;;;5128044;27;20377;-69
2022/02/02 20:42:27;;;;;;;14.73;3.40;;;2.70;99.90;;;;;;5126086;27;20211;-69
2022/02/02 21:02:28;;;;;;;14.70;2.87;;;2.50;99.90;;;;;;5129754;27;20672;-69
2022/02/02 21:04:43;;;;;;;9.33;2.50;;;2.60;99.90;;;;;;5123308;27;20223;-69
2022/02/02 21:07:28;;;;;;;8.53;2.27;;;2.60;99.90;;;;;;5131513;27;20231;-69
2022/02/02 21:10:01;;;;;;;9.57;2.57;;;2.60;99.90;;;;;;5133693;27;20658;-70
2022/02/02 21:15:16;;;;;;;11.97;2.70;;;2.50;99.90;;;;;;5133296;27;20276;-69
2022/02/02 21:17:45;;;;;;;12.40;2.60;;;2.50;99.90;;;;;;5133445;27;20268;-69
2022/02/02 21:20:20;;;;;;;9.13;2.53;;;2.50;99.90;;;;;;5133416;27;20204;-69
2022/02/02 21:22:51;;;;;;;10.40;2.60;;;2.40;99.90;;;;;;5132692;27;20204;-69
2022/02/02 21:28:12;;;;;;;11.77;2.40;;;2.30;99.90;;;;;;5082864;27;20662;-69
2022/02/02 21:30:42;;;;;;;15.13;2.57;;;2.30;99.90;;;;;;5132713;27;20703;-70
2022/02/02 21:33:14;;;;;;;14.57;2.80;;;2.20;99.90;;;;;;5133096;27;20670;-69
2022/02/02 21:35:42;;;;;;;14.97;2.57;;;2.10;99.90;;;;;;5132431;27;20248;-69
2022/02/02 21:38:17;;;;;;;12.03;2.70;;;2.00;99.90;;;;;;5133002;27;20200;-70
2022/02/02 21:40:49;;;;;;;8.50;2.37;;;2.00;1.00;;;;;;5132097;27;20225;-69
2022/02/02 21:43:16;;;;;;;13.60;2.50;;;2.00;1.00;;;;;;5132637;27;20208;-69
2022/02/02 21:45:43;;;;;;;12.63;2.40;;;2.00;1.00;;;;;;5131776;27;20224;-69
2022/02/02 21:48:12;;;;;;;13.77;2.90;;;2.00;1.00;;;;;;5133284;27;20193;-69